createdAt,value
2022-11-22T00:01:20.514Z,8.00
2022-11-22T00:03:48.710Z,8.03
2022-11-22T00:06:16.962Z,8.00
2022-11-22T00:08:45.135Z,8.03
2022-11-22T00:11:13.409Z,8.05
2022-11-22T00:13:41.607Z,8.05
2022-11-22T00:16:09.912Z,8.02
2022-11-22T00:18:39.556Z,7.99
2022-11-22T00:21:09.046Z,7.91
2022-11-22T00:23:37.401Z,7.85
2022-11-22T00:26:07.145Z,7.76
2022-11-22T00:28:35.449Z,7.73
2022-11-22T00:31:03.772Z,7.81
2022-11-22T00:33:32.057Z,7.85
2022-11-22T00:36:01.784Z,7.87
2022-11-22T00:38:30.668Z,7.82
2022-11-22T00:40:58.934Z,7.89
2022-11-22T00:43:27.158Z,7.93
2022-11-22T00:45:55.467Z,7.96
2022-11-22T00:48:23.752Z,8.05
2022-11-22T00:50:52.050Z,8.08
2022-11-22T00:53:21.876Z,8.10
2022-11-22T00:55:50.364Z,8.10
2022-11-22T00:58:18.941Z,8.09
2022-11-22T01:00:49.132Z,7.82
2022-11-22T01:03:20.337Z,8.02
2022-11-22T01:05:48.671Z,7.96
2022-11-22T01:08:16.947Z,7.91
2022-11-22T01:10:46.595Z,8.01
2022-11-22T01:13:15.376Z,8.02
2022-11-22T01:15:43.560Z,8.05
2022-11-22T01:18:11.773Z,8.06
2022-11-22T01:20:41.747Z,8.07
2022-11-22T01:23:10.002Z,7.99
2022-11-22T01:25:38.202Z,8.05
2022-11-22T01:28:07.907Z,8.05
2022-11-22T01:30:36.255Z,8.05
2022-11-22T01:33:04.717Z,8.03
2022-11-22T01:35:32.963Z,8.03
2022-11-22T01:38:01.165Z,8.04
2022-11-22T01:40:29.964Z,8.06
2022-11-22T01:42:59.471Z,8.09
2022-11-22T01:45:46.591Z,8.12
2022-11-22T01:48:36.915Z,8.13
2022-11-22T01:51:10.911Z,8.13
2022-11-22T01:53:41.090Z,8.12
2022-11-22T01:56:14.484Z,8.12
2022-11-22T01:58:44.565Z,8.11
2022-11-22T02:01:22.659Z,8.09
2022-11-22T02:03:57.707Z,8.09
2022-11-22T02:06:33.917Z,8.13
2022-11-22T02:09:07.450Z,8.12
2022-11-22T02:11:39.612Z,7.95
2022-11-22T02:14:10.256Z,8.05
2022-11-22T02:17:15.550Z,8.03
2022-11-22T02:19:47.854Z,8.00
2022-11-22T02:22:26.953Z,8.01
2022-11-22T02:24:58.621Z,7.74
2022-11-22T02:27:28.455Z,7.92
2022-11-22T02:29:56.758Z,7.90
2022-11-22T02:32:25.347Z,7.93
2022-11-22T02:34:53.608Z,7.99
2022-11-22T02:37:26.652Z,7.99
2022-11-22T02:40:00.342Z,8.01
2022-11-22T02:42:32.165Z,7.95
2022-11-22T02:45:01.513Z,7.95
2022-11-22T02:47:29.668Z,7.91
2022-11-22T02:49:57.920Z,7.96
2022-11-22T02:52:26.148Z,7.98
2022-11-22T02:54:54.513Z,8.00
2022-11-22T02:57:23.961Z,7.98
2022-11-22T02:59:53.653Z,7.99
2022-11-22T03:02:21.824Z,7.94
2022-11-22T03:04:50.747Z,7.94
2022-11-22T03:07:19.049Z,7.93
2022-11-22T03:09:47.446Z,7.91
2022-11-22T03:12:15.619Z,7.89
2022-11-22T03:14:44.065Z,7.92
2022-11-22T03:17:14.338Z,7.91
2022-11-22T03:19:42.700Z,7.91
2022-11-22T03:22:11.702Z,7.86
2022-11-22T03:24:40.146Z,7.87
2022-11-22T03:27:09.399Z,7.83
2022-11-22T03:29:37.769Z,7.73
2022-11-22T03:32:06.199Z,7.67
2022-11-22T03:34:35.940Z,7.61
2022-11-22T03:37:04.206Z,7.51
2022-11-22T03:39:32.723Z,7.40
2022-11-22T03:42:00.961Z,6.56
2022-11-22T03:44:29.237Z,7.28
2022-11-22T03:46:57.452Z,7.33
2022-11-22T03:49:25.840Z,7.37
2022-11-22T03:51:55.498Z,7.41
2022-11-22T03:54:23.715Z,7.40
2022-11-22T03:56:51.997Z,7.44
2022-11-22T03:59:20.346Z,7.53
2022-11-22T04:01:48.745Z,7.59
2022-11-22T04:04:17.091Z,7.63
2022-11-22T04:06:45.380Z,7.63
2022-11-22T04:09:15.133Z,7.63
2022-11-22T04:11:43.445Z,7.59
2022-11-22T04:14:30.390Z,7.54
2022-11-22T04:16:58.693Z,7.60
2022-11-22T04:19:27.053Z,7.61
2022-11-22T04:21:54.531Z,7.64
2022-11-22T04:24:47.960Z,7.68
2022-11-22T04:27:16.264Z,7.64
2022-11-22T04:35:52.435Z,7.69
2022-11-22T04:38:20.819Z,7.77
2022-11-22T04:40:50.696Z,7.79
2022-11-22T04:43:39.351Z,7.83
2022-11-22T04:46:07.739Z,7.79
2022-11-22T04:48:36.274Z,7.77
2022-11-22T04:51:22.163Z,7.78
2022-11-22T04:53:50.499Z,7.90
2022-11-22T04:56:20.623Z,7.96
2022-11-22T04:58:51.532Z,7.95
2022-11-22T05:01:24.757Z,7.96
2022-11-22T05:03:56.678Z,7.95
2022-11-22T05:06:24.944Z,7.96
2022-11-22T05:08:53.195Z,7.96
2022-11-22T05:11:22.893Z,7.98
2022-11-22T05:13:51.177Z,7.97
2022-11-22T05:16:19.558Z,7.95
2022-11-22T05:18:59.353Z,7.95
2022-11-22T05:21:29.152Z,7.96
2022-11-22T05:23:56.849Z,7.97
2022-11-22T05:26:28.545Z,7.96
2022-11-22T05:28:58.144Z,7.77
2022-11-22T05:31:28.439Z,7.91
2022-11-22T05:33:58.004Z,7.91
2022-11-22T05:36:26.728Z,7.90
2022-11-22T05:38:55.868Z,7.88
2022-11-22T05:41:24.091Z,7.85
2022-11-22T05:43:55.443Z,7.83
2022-11-22T05:46:26.472Z,7.80
2022-11-22T05:48:56.304Z,7.79
2022-11-22T05:51:32.512Z,7.39
2022-11-22T05:54:02.646Z,7.81
2022-11-22T05:56:31.927Z,7.81
2022-11-22T05:59:01.702Z,7.81
2022-11-22T06:01:30.125Z,7.82
2022-11-22T06:03:58.485Z,7.84
2022-11-22T06:06:26.752Z,7.85
2022-11-22T06:08:55.146Z,7.85
2022-11-22T06:11:24.906Z,7.90
2022-11-22T06:13:54.770Z,7.07
2022-11-22T06:16:24.819Z,7.97
2022-11-22T06:18:54.500Z,8.00
2022-11-22T06:21:25.239Z,8.01
2022-11-22T06:23:55.116Z,8.04
2022-11-22T06:26:25.277Z,8.06
2022-11-22T06:28:54.919Z,8.03
2022-11-22T06:31:26.632Z,8.05
2022-11-22T06:33:56.204Z,8.05
2022-11-22T06:36:25.977Z,7.86
2022-11-22T06:38:54.851Z,8.10
2022-11-22T06:41:25.861Z,8.10
2022-11-22T06:43:56.335Z,8.16
2022-11-22T06:46:28.307Z,8.23
2022-11-22T06:48:56.702Z,8.25
2022-11-22T06:51:27.440Z,8.31
2022-11-22T06:53:56.549Z,8.37
2022-11-22T06:56:26.371Z,8.40
2022-11-22T06:58:55.597Z,8.44
2022-11-22T07:01:26.008Z,8.48
2022-11-22T07:03:58.613Z,8.49
2022-11-22T07:06:28.540Z,8.25
2022-11-22T07:08:57.388Z,8.48
2022-11-22T07:11:28.289Z,8.33
2022-11-22T07:14:01.890Z,8.52
2022-11-22T07:16:35.282Z,8.54
2022-11-22T07:19:05.332Z,8.44
2022-11-22T07:21:33.786Z,8.59
2022-11-22T07:24:02.962Z,8.59
2022-11-22T07:26:31.331Z,8.64
2022-11-22T07:28:59.492Z,8.66
2022-11-22T07:31:28.409Z,8.70
2022-11-22T07:33:58.601Z,8.72
2022-11-22T07:36:29.729Z,8.77
2022-11-22T07:38:58.070Z,8.77
2022-11-22T07:41:26.377Z,8.79
2022-11-22T07:43:54.793Z,8.84
2022-11-22T07:46:26.383Z,9.06
2022-11-22T07:48:54.776Z,9.31
2022-11-22T07:51:23.188Z,9.65
2022-11-22T07:53:53.179Z,9.92
2022-11-22T07:56:21.535Z,10.06
2022-11-22T07:58:50.396Z,10.18
2022-11-22T08:01:20.252Z,10.04
2022-11-22T08:03:48.920Z,10.02
2022-11-22T08:06:17.745Z,10.35
2022-11-22T08:08:46.227Z,10.35
2022-11-22T08:11:15.875Z,10.51
2022-11-22T08:13:44.735Z,10.61
2022-11-22T08:16:16.473Z,10.89
2022-11-22T08:18:48.844Z,11.10
2022-11-22T08:21:19.635Z,11.21
2022-11-22T08:23:49.162Z,11.26
2022-11-22T08:26:21.221Z,11.41
2022-11-22T08:28:49.490Z,10.97
2022-11-22T08:31:19.901Z,11.73
2022-11-22T08:33:49.119Z,11.78
2022-11-22T08:36:17.371Z,11.73
2022-11-22T08:38:45.957Z,11.54
2022-11-22T08:41:14.585Z,11.38
2022-11-22T08:43:44.257Z,11.24
2022-11-22T08:46:13.041Z,11.13
2022-11-22T08:48:41.364Z,11.09
2022-11-22T08:51:11.475Z,11.19
2022-11-22T08:53:41.482Z,11.30
2022-11-22T08:56:12.368Z,11.39
2022-11-22T08:58:41.134Z,11.53
2022-11-22T09:01:13.386Z,11.61
2022-11-22T09:03:42.625Z,11.44
2022-11-22T09:11:49.705Z,11.72
2022-11-22T09:14:18.006Z,11.76
2022-11-22T09:16:47.707Z,11.78
2022-11-22T09:19:15.995Z,11.75
2022-11-22T09:21:44.324Z,11.76
2022-11-22T09:24:12.516Z,11.74
2022-11-22T09:26:40.837Z,11.71
2022-11-22T09:29:09.073Z,11.76
2022-11-22T09:31:37.368Z,11.80
2022-11-22T09:34:08.139Z,11.87
2022-11-22T09:36:36.444Z,11.91
2022-11-22T09:39:04.959Z,11.94
2022-11-22T09:41:57.107Z,12.01
2022-11-22T09:44:37.155Z,12.05
2022-11-22T09:47:15.783Z,12.05
2022-11-22T09:49:54.538Z,12.09
2022-11-22T09:52:29.389Z,12.10
2022-11-22T09:55:03.172Z,12.13
2022-11-22T09:57:38.587Z,12.13
2022-11-22T10:00:09.230Z,12.14
2022-11-22T10:02:59.918Z,12.18
2022-11-22T10:05:36.168Z,12.23
2022-11-22T10:08:17.707Z,12.22
2022-11-22T10:11:34.894Z,12.02
2022-11-22T10:14:51.742Z,12.23
2022-11-22T10:17:33.587Z,12.17
2022-11-22T10:20:07.399Z,12.12
2022-11-22T10:22:37.068Z,12.27
2022-11-22T10:25:15.713Z,12.32
2022-11-22T10:27:44.504Z,12.34
2022-11-22T10:30:17.787Z,12.39
2022-11-22T10:32:57.524Z,12.47
2022-11-22T10:35:41.477Z,12.44
2022-11-22T10:38:34.420Z,12.44
2022-11-22T10:41:12.122Z,12.45
2022-11-22T10:43:47.170Z,12.44
2022-11-22T10:46:23.000Z,12.46
2022-11-22T10:49:00.076Z,12.44
2022-11-22T10:51:34.630Z,12.42
2022-11-22T10:54:16.713Z,12.43
2022-11-22T10:56:51.328Z,12.39
2022-11-22T10:59:34.807Z,12.41
2022-11-22T11:02:19.244Z,12.38
2022-11-22T11:04:48.923Z,12.35
2022-11-22T11:07:21.927Z,12.16
2022-11-22T11:10:10.640Z,12.32
2022-11-22T11:12:43.474Z,12.29
2022-11-22T11:15:18.840Z,11.43
2022-11-22T11:17:51.006Z,12.15
2022-11-22T11:20:24.792Z,12.39
2022-11-22T11:25:43.796Z,12.35
2022-11-22T11:28:18.593Z,12.38
2022-11-22T11:30:49.787Z,12.41
2022-11-22T11:33:21.832Z,12.43
2022-11-22T11:35:50.069Z,12.46
2022-11-22T11:38:29.037Z,12.51
2022-11-22T11:40:59.198Z,12.40
2022-11-22T11:43:27.459Z,12.49
2022-11-22T11:45:55.757Z,12.47
2022-11-22T11:48:41.182Z,12.48
2022-11-22T11:51:16.259Z,12.49
2022-11-22T11:53:53.092Z,12.50
2022-11-22T11:56:33.514Z,12.43
2022-11-22T11:59:08.183Z,12.51
2022-11-22T12:01:39.084Z,12.52
2022-11-22T12:04:08.503Z,12.51
2022-11-22T12:06:36.697Z,12.46
2022-11-22T12:09:28.175Z,12.42
2022-11-22T12:12:03.763Z,12.33
2022-11-22T12:14:55.543Z,12.35
2022-11-22T12:17:27.862Z,12.31
2022-11-22T12:20:04.064Z,12.29
2022-11-22T12:22:52.960Z,12.34
2022-11-22T12:25:35.384Z,12.33
2022-11-22T12:28:18.690Z,12.13
2022-11-22T12:30:53.583Z,12.31
2022-11-22T12:33:30.841Z,12.32
2022-11-22T12:35:59.579Z,12.32
2022-11-22T12:38:33.784Z,12.39
2022-11-22T12:41:06.985Z,12.39
2022-11-22T12:43:44.084Z,12.31
2022-11-22T12:46:18.055Z,12.40
2022-11-22T12:48:49.975Z,12.40
2022-11-22T12:51:26.264Z,12.43
2022-11-22T12:53:58.857Z,12.46
2022-11-22T12:56:33.373Z,12.42
2022-11-22T12:59:12.884Z,12.46
2022-11-22T13:01:49.479Z,12.47
2022-11-22T13:04:25.376Z,12.47
2022-11-22T13:06:59.203Z,12.35
2022-11-22T13:09:33.532Z,12.37
2022-11-22T13:12:06.714Z,12.30
2022-11-22T13:14:41.984Z,12.17
2022-11-22T13:17:12.268Z,12.49
2022-11-22T13:19:46.840Z,12.52
2022-11-22T13:22:23.165Z,12.53
2022-11-22T13:25:04.648Z,12.49
2022-11-22T13:27:36.375Z,12.43
2022-11-22T13:30:06.959Z,12.40
2022-11-22T13:32:36.864Z,12.36
2022-11-22T13:35:18.545Z,12.38
2022-11-22T13:37:48.593Z,12.35
2022-11-22T13:40:26.494Z,12.35
2022-11-22T13:43:32.068Z,12.34
2022-11-22T13:46:04.416Z,12.29
2022-11-22T13:49:05.957Z,12.29
2022-11-22T13:51:57.106Z,12.30
2022-11-22T13:54:58.350Z,12.30
2022-11-22T13:57:30.869Z,12.27
2022-11-22T14:00:40.452Z,12.27
2022-11-22T14:03:36.011Z,12.21
2022-11-22T14:06:22.360Z,12.13
2022-11-22T14:08:50.712Z,12.09
2022-11-22T14:11:36.425Z,12.07
2022-11-22T14:14:19.815Z,12.05
2022-11-22T14:17:04.966Z,12.05
2022-11-22T14:19:50.192Z,12.06
2022-11-22T14:22:25.564Z,12.00
2022-11-22T14:25:18.219Z,11.98
2022-11-22T14:27:54.992Z,11.77
2022-11-22T14:30:41.364Z,11.84
2022-11-22T14:33:20.433Z,11.71
2022-11-22T14:36:18.034Z,11.70
2022-11-22T14:38:48.482Z,11.64
2022-11-22T14:41:41.814Z,11.62
2022-11-22T14:44:14.642Z,11.56
2022-11-22T14:46:53.886Z,11.54
2022-11-22T14:49:34.182Z,11.51
2022-11-22T14:52:04.134Z,11.46
2022-11-22T14:54:44.173Z,11.42
2022-11-22T14:57:18.432Z,11.38
2022-11-22T15:00:05.796Z,11.35
2022-11-22T15:03:06.139Z,11.35
2022-11-22T15:09:10.678Z,11.24
2022-11-22T15:09:20.509Z,11.30
2022-11-22T15:12:06.698Z,11.25
2022-11-22T15:58:13.989Z,10.91
2022-11-22T16:00:45.250Z,10.94
2022-11-22T16:03:25.755Z,10.88
2022-11-22T16:06:05.855Z,10.89
2022-11-22T16:08:40.227Z,10.84
2022-11-22T16:11:08.563Z,10.82
2022-11-22T16:13:40.050Z,10.79
2022-11-22T16:16:19.593Z,10.75
2022-11-22T16:18:48.940Z,10.69
2022-11-22T16:21:27.863Z,10.66
2022-11-22T16:24:18.337Z,10.64
2022-11-22T16:26:56.425Z,10.58
2022-11-22T16:29:32.350Z,10.48
2022-11-22T16:32:06.694Z,10.36
2022-11-22T16:34:34.998Z,10.34
2022-11-22T16:37:03.654Z,10.33
2022-11-22T16:39:33.848Z,10.32
2022-11-22T16:42:04.930Z,10.30
2022-11-22T16:44:34.970Z,10.33
2022-11-22T16:47:03.210Z,9.54
2022-11-22T16:49:33.822Z,10.27
2022-11-22T16:52:03.190Z,10.23
2022-11-22T16:54:36.484Z,10.15
2022-11-22T16:57:07.291Z,10.14
2022-11-22T16:59:36.936Z,10.10
2022-11-22T17:02:07.686Z,10.08
2022-11-22T17:04:40.939Z,10.04
2022-11-22T17:07:10.856Z,10.05
2022-11-22T17:09:39.120Z,10.05
2022-11-22T17:12:14.293Z,10.08
2022-11-22T17:14:46.075Z,10.07
2022-11-22T17:17:14.660Z,10.02
2022-11-22T17:19:53.202Z,10.03
2022-11-22T17:22:22.414Z,9.99
2022-11-22T17:24:50.944Z,9.96
2022-11-22T17:27:19.297Z,9.96
2022-11-22T17:29:50.974Z,9.95
2022-11-22T17:32:20.131Z,9.94
2022-11-22T17:34:48.499Z,9.92
2022-11-22T17:37:16.815Z,9.89
2022-11-22T17:39:45.128Z,9.89
2022-11-22T17:42:15.457Z,9.86
2022-11-22T17:44:45.183Z,9.82
2022-11-22T17:47:14.868Z,9.78
2022-11-22T17:49:43.290Z,9.71
2022-11-22T17:52:11.510Z,9.67
2022-11-22T17:54:40.011Z,9.67
2022-11-22T17:57:08.339Z,9.67
2022-11-22T17:59:37.634Z,9.59
2022-11-22T18:02:06.024Z,9.57
2022-11-22T18:04:35.727Z,9.59
2022-11-22T18:07:04.082Z,9.43
2022-11-22T18:09:34.671Z,9.49
2022-11-22T18:12:03.104Z,9.41
2022-11-22T18:14:31.524Z,9.39
2022-11-22T18:17:00.561Z,9.33
2022-11-22T18:19:29.138Z,9.29
2022-11-22T18:21:59.062Z,9.25
2022-11-22T18:24:27.355Z,9.27
2022-11-22T18:26:56.000Z,9.26
2022-11-22T18:29:41.574Z,9.30
2022-11-22T18:32:11.386Z,9.30
2022-11-22T18:34:40.067Z,9.33
2022-11-22T18:37:09.741Z,9.33
2022-11-22T18:39:39.785Z,9.36
2022-11-22T18:42:11.366Z,9.40
2022-11-22T18:44:39.685Z,9.38
2022-11-22T18:47:08.110Z,9.40
2022-11-22T18:49:36.928Z,9.39
2022-11-22T18:52:05.734Z,9.37
2022-11-22T18:54:35.717Z,9.39
2022-11-22T18:57:04.305Z,9.42
2022-11-22T18:59:32.603Z,9.42
2022-11-22T19:02:00.847Z,9.43
2022-11-22T19:04:29.865Z,9.39
2022-11-22T19:06:58.595Z,9.33
2022-11-22T19:09:26.919Z,9.25
2022-11-22T19:11:58.643Z,9.25
2022-11-22T19:14:29.190Z,9.22
2022-11-22T19:16:58.939Z,9.17
2022-11-22T19:19:27.779Z,9.22
2022-11-22T19:21:56.000Z,9.21
2022-11-22T19:24:24.231Z,9.19
2022-11-22T19:26:52.541Z,9.13
2022-11-22T19:29:22.312Z,9.15
2022-11-22T19:31:50.771Z,9.12
2022-11-22T19:34:19.116Z,9.12
2022-11-22T19:36:47.428Z,9.06
2022-11-22T19:39:16.508Z,9.10
2022-11-22T19:41:46.120Z,9.07
2022-11-22T19:44:14.538Z,9.02
2022-11-22T19:46:44.257Z,8.98
2022-11-22T19:49:12.548Z,8.91
2022-11-22T19:51:40.995Z,8.82
2022-11-22T19:54:09.384Z,8.78
2022-11-22T19:56:39.269Z,8.77
2022-11-22T19:59:10.466Z,8.75
2022-11-22T20:01:39.858Z,8.68
2022-11-22T20:04:10.315Z,8.62
2022-11-22T20:06:38.677Z,8.60
2022-11-22T20:09:09.897Z,8.59
2022-11-22T20:11:41.601Z,8.57
2022-11-22T20:14:10.788Z,8.56
2022-11-22T20:16:41.352Z,8.52
2022-11-22T20:19:12.531Z,9.10
2022-11-22T20:21:41.464Z,8.77
2022-11-22T20:24:10.130Z,8.64
2022-11-22T20:26:38.542Z,8.53
2022-11-22T20:29:08.952Z,8.48
2022-11-22T20:31:38.024Z,8.37
2022-11-22T20:34:06.267Z,8.29
2022-11-22T20:36:36.783Z,8.19
2022-11-22T20:39:10.440Z,8.09
2022-11-22T20:41:40.070Z,8.02
2022-11-22T20:44:10.032Z,7.98
2022-11-22T20:46:38.872Z,8.00
2022-11-22T20:49:07.659Z,7.93
2022-11-22T20:51:39.900Z,7.93
2022-11-22T20:54:08.871Z,7.93
2022-11-22T20:56:37.441Z,7.93
2022-11-22T20:59:05.929Z,7.93
2022-11-22T21:01:34.338Z,7.91
2022-11-22T21:04:04.370Z,7.89
2022-11-22T21:06:34.977Z,7.80
2022-11-22T21:09:05.153Z,7.77
2022-11-22T21:11:33.476Z,7.75
2022-11-22T21:14:01.747Z,7.77
2022-11-22T21:16:30.939Z,7.72
2022-11-22T21:19:01.887Z,7.74
2022-11-22T21:21:31.132Z,7.55
2022-11-22T21:24:00.921Z,7.77
2022-11-22T21:26:31.084Z,7.74
2022-11-22T21:29:00.573Z,7.72
2022-11-22T21:31:29.271Z,7.69
2022-11-22T21:33:58.670Z,7.67
2022-11-22T21:36:27.065Z,7.65
2022-11-22T21:38:55.448Z,7.66
2022-11-22T21:41:40.559Z,7.63
2022-11-22T21:44:11.188Z,7.57
2022-11-22T21:46:39.871Z,7.53
2022-11-22T21:49:08.567Z,7.49
2022-11-22T21:51:36.800Z,7.53
2022-11-22T21:54:06.032Z,7.59
2022-11-22T21:56:35.600Z,7.16
2022-11-22T21:59:04.035Z,7.53
2022-11-22T22:01:36.170Z,7.43
2022-11-22T22:04:04.782Z,7.55
2022-11-22T22:06:33.183Z,7.55
2022-11-22T22:09:01.628Z,7.54
2022-11-22T22:11:29.832Z,7.55
2022-11-22T22:13:59.029Z,7.56
2022-11-22T22:16:27.303Z,7.55
2022-11-22T22:18:57.018Z,7.51
2022-11-22T22:21:25.278Z,7.42
2022-11-22T22:23:54.052Z,7.45
2022-11-22T22:26:22.387Z,7.48
2022-11-22T22:28:50.758Z,7.45
2022-11-22T22:31:22.365Z,7.43
2022-11-22T22:33:52.205Z,7.41
2022-11-22T22:36:22.523Z,7.43
2022-11-22T22:38:50.959Z,7.41
2022-11-22T22:41:19.687Z,7.37
2022-11-22T22:43:49.716Z,7.06
2022-11-22T22:46:20.305Z,7.40
2022-11-22T22:48:50.171Z,7.39
2022-11-22T22:51:20.139Z,7.30
2022-11-22T22:53:50.304Z,7.44
2022-11-22T22:56:20.277Z,7.38
2022-11-22T22:58:49.005Z,7.34
2022-11-22T23:01:21.523Z,7.30
2022-11-22T23:03:53.239Z,7.30
2022-11-22T23:06:23.327Z,7.34
2022-11-22T23:08:54.653Z,7.20
2022-11-22T23:11:45.299Z,7.33
2022-11-22T23:14:14.922Z,7.32
2022-11-22T23:16:43.472Z,7.32
2022-11-22T23:19:12.135Z,7.34
2022-11-22T23:21:40.905Z,7.38
2022-11-22T23:24:10.895Z,7.38
2022-11-22T23:26:39.479Z,7.33
2022-11-22T23:29:07.737Z,7.33
2022-11-22T23:31:36.201Z,7.34
2022-11-22T23:34:04.651Z,7.38
2022-11-22T23:36:37.399Z,7.39
2022-11-22T23:39:10.331Z,7.41
2022-11-22T23:41:38.769Z,7.41
2022-11-22T23:44:08.400Z,7.43
2022-11-22T23:46:36.600Z,7.29
2022-11-22T23:49:05.541Z,7.37
2022-11-22T23:51:34.694Z,7.41
2022-11-22T23:54:04.624Z,7.41
2022-11-22T23:56:36.448Z,7.41
2022-11-22T23:59:06.617Z,7.40
